Time;durP1;ratioP1;P1;durP2;ratioP2;P2;SDS_P1;SDS_P2;PMS_P1;PMS_P2;Temp;Humidity;BMP_temperature;BMP_pressure;BME280_temperature;BME280_humidity;BME280_pressure;Samples;Min_cycle;Max_cycle;Signal;HPM_P1;HPM_P2
2022/09/13 00:00:26;;;;;;;;;6.00;5.67;;;;;;;;5102756;27;61981;-77
2022/09/13 00:02:51;;;;;;;;;6.33;6.33;;;;;;;;5101533;27;61747;-77
2022/09/13 00:05:17;;;;;;;;;7.00;4.00;;;;;;;;5101316;27;62060;-77
2022/09/13 00:07:42;;;;;;;;;7.00;6.00;;;;;;;;5100718;27;63810;-77
2022/09/13 00:10:07;;;;;;;;;5.67;4.67;;;;;;;;5102269;27;62169;-77
2022/09/13 00:12:33;;;;;;;;;4.33;4.33;;;;;;;;5101604;27;62018;-77
2022/09/13 00:14:58;;;;;;;;;7.00;4.67;;;;;;;;5101022;27;61895;-77
2022/09/13 00:17:24;;;;;;;;;6.00;5.00;;;;;;;;5100754;27;64142;-77
2022/09/13 00:19:50;;;;;;;;;5.00;5.00;;;;;;;;5102213;27;61964;-77
2022/09/13 00:22:15;;;;;;;;;4.33;4.33;;;;;;;;5101056;27;62265;-78
2022/09/13 00:24:40;;;;;;;;;6.25;5.75;;;;;;;;5102523;27;61782;-77
2022/09/13 00:27:05;;;;;;;;;4.33;4.33;;;;;;;;5101599;27;61893;-77
2022/09/13 00:29:31;;;;;;;;;7.25;4.25;;;;;;;;5102403;27;62285;-77
2022/09/13 00:31:56;;;;;;;;;4.00;4.00;;;;;;;;5101044;27;62051;-77
2022/09/13 00:34:22;;;;;;;;;5.33;5.00;;;;;;;;5101141;27;62240;-77
2022/09/13 00:36:47;;;;;;;;;9.00;5.00;;;;;;;;5100502;27;63912;-77
2022/09/13 00:39:12;;;;;;;;;4.67;4.33;;;;;;;;5100356;27;62006;-77
2022/09/13 00:41:38;;;;;;;;;6.67;3.00;;;;;;;;5102845;27;61826;-77
2022/09/13 00:44:05;;;;;;;;;5.00;5.00;;;;;;;;5104829;27;62178;-77
2022/09/13 00:47:00;;;;;;;;;3.67;3.67;;;;;;;;5104055;27;63793;-77
2022/09/13 00:49:30;;;;;;;;;5.67;4.67;;;;;;;;5090770;27;62138;-77
2022/09/13 00:52:02;;;;;;;;;3.00;3.00;;;;;;;;5104521;27;61967;-77
2022/09/13 00:54:32;;;;;;;;;4.00;4.00;;;;;;;;5103457;27;61821;-78
2022/09/13 00:56:59;;;;;;;;;5.00;4.00;;;;;;;;5103729;27;63838;-77
2022/09/13 00:59:30;;;;;;;;;5.67;3.67;;;;;;;;5105149;27;62106;-77
2022/09/13 01:01:56;;;;;;;;;5.00;3.00;;;;;;;;5104034;27;62069;-77
2022/09/13 01:04:24;;;;;;;;;4.00;4.00;;;;;;;;5104048;27;62217;-77
2022/09/13 01:06:51;;;;;;;;;3.33;3.33;;;;;;;;5104730;27;61930;-77
2022/09/13 01:09:16;;;;;;;;;6.67;5.00;;;;;;;;5103456;27;62010;-77
2022/09/13 01:11:49;;;;;;;;;2.67;2.67;;;;;;;;5104148;27;62455;-78
2022/09/13 01:14:15;;;;;;;;;4.67;4.33;;;;;;;;5105495;27;61961;-77
2022/09/13 01:16:40;;;;;;;;;5.67;5.00;;;;;;;;5103024;27;65042;-77
2022/09/13 01:19:06;;;;;;;;;4.67;4.00;;;;;;;;5103587;27;61777;-77
2022/09/13 01:21:45;;;;;;;;;5.00;5.00;;;;;;;;5103838;27;61996;-77
2022/09/13 01:24:10;;;;;;;;;3.67;3.67;;;;;;;;5103409;27;61710;-77
2022/09/13 01:26:42;;;;;;;;;3.33;3.33;;;;;;;;5103318;27;63771;-77
2022/09/13 01:29:25;;;;;;;;;3.00;3.00;;;;;;;;5105261;27;61883;-78
2022/09/13 01:31:59;;;;;;;;;5.00;4.00;;;;;;;;5103580;27;62111;-77
2022/09/13 01:34:42;;;;;;;;;8.00;5.00;;;;;;;;5103845;27;61928;-77
2022/09/13 01:37:24;;;;;;;;;4.00;4.00;;;;;;;;5103406;27;63785;-77
2022/09/13 01:39:53;;;;;;;;;5.33;3.67;;;;;;;;5103231;27;61816;-77
2022/09/13 01:42:19;;;;;;;;;6.00;5.00;;;;;;;;5103552;27;61900;-77
2022/09/13 01:44:54;;;;;;;;;6.00;4.00;;;;;;;;5105061;27;61836;-77
2022/09/13 01:47:42;;;;;;;;;2.00;2.00;;;;;;;;5104082;27;61990;-77
2022/09/13 01:50:33;;;;;;;;;3.67;3.00;;;;;;;;5044272;28;62234;-77
2022/09/13 01:53:19;;;;;;;;;6.50;5.00;;;;;;;;5044049;28;61926;-77
2022/09/13 01:55:56;;;;;;;;;3.00;3.00;;;;;;;;5044616;28;62491;-77
2022/09/13 01:58:30;;;;;;;;;5.67;4.00;;;;;;;;5060842;28;62127;-77
2022/09/13 02:01:16;;;;;;;;;4.67;3.33;;;;;;;;5060864;28;62055;-77
2022/09/13 02:03:47;;;;;;;;;5.00;4.00;;;;;;;;5044607;28;61803;-77
2022/09/13 02:06:15;;;;;;;;;6.00;4.25;;;;;;;;5061429;28;61983;-77
2022/09/13 02:08:46;;;;;;;;;3.67;3.67;;;;;;;;5060013;28;62120;-77
2022/09/13 02:11:13;;;;;;;;;7.00;4.00;;;;;;;;5044342;28;62036;-77
2022/09/13 02:13:58;;;;;;;;;3.00;2.00;;;;;;;;5044137;28;61928;-77
2022/09/13 02:16:37;;;;;;;;;8.67;3.33;;;;;;;;5044024;28;62093;-77
2022/09/13 02:19:06;;;;;;;;;4.00;4.00;;;;;;;;5043592;28;64732;-77
2022/09/13 02:21:35;;;;;;;;;4.67;4.33;;;;;;;;5043698;28;61883;-77
2022/09/13 02:24:08;;;;;;;;;6.33;4.33;;;;;;;;5060470;28;61770;-77
2022/09/13 02:26:34;;;;;;;;;5.00;4.67;;;;;;;;5051234;28;61810;-77
2022/09/13 02:29:02;;;;;;;;;6.00;3.00;;;;;;;;5082861;28;62933;-78
2022/09/13 02:31:35;;;;;;;;;3.00;3.00;;;;;;;;5083465;28;61843;-77
2022/09/13 02:34:04;;;;;;;;;4.33;2.67;;;;;;;;5083669;27;61654;-77
2022/09/13 02:36:31;;;;;;;;;3.50;3.50;;;;;;;;5083788;28;62130;-77
2022/09/13 02:39:02;;;;;;;;;3.75;3.75;;;;;;;;5082707;28;61840;-77
2022/09/13 02:41:36;;;;;;;;;1.67;1.00;;;;;;;;5081696;28;61860;-77
2022/09/13 02:44:06;;;;;;;;;3.00;3.00;;;;;;;;5081833;28;61990;-77
2022/09/13 02:46:47;;;;;;;;;2.00;2.00;;;;;;;;5082351;28;61904;-77
2022/09/13 02:49:38;;;;;;;;;4.00;3.00;;;;;;;;5081334;28;63703;-77
2022/09/13 02:52:22;;;;;;;;;3.00;3.00;;;;;;;;5043458;28;62207;-77
2022/09/13 02:54:47;;;;;;;;;3.00;3.00;;;;;;;;5042951;28;62161;-77
2022/09/13 02:57:33;;;;;;;;;2.00;2.00;;;;;;;;5060801;28;61958;-77
2022/09/13 02:59:58;;;;;;;;;2.00;2.00;;;;;;;;4996247;28;65067;-77
2022/09/13 03:02:26;;;;;;;;;2.00;2.00;;;;;;;;4980874;28;61880;-77
2022/09/13 03:04:52;;;;;;;;;2.67;2.00;;;;;;;;4963676;28;62284;-77
2022/09/13 03:07:17;;;;;;;;;2.67;2.67;;;;;;;;4964423;28;62005;-77
2022/09/13 03:09:49;;;;;;;;;2.00;1.67;;;;;;;;4963260;28;63416;-77
2022/09/13 03:12:33;;;;;;;;;5.00;3.00;;;;;;;;4964244;28;61906;-77
2022/09/13 03:15:01;;;;;;;;;6.00;2.67;;;;;;;;4996937;28;61797;-77
2022/09/13 03:17:43;;;;;;;;;3.00;2.00;;;;;;;;4980934;28;62067;-77
2022/09/13 03:20:17;;;;;;;;;5.33;3.00;;;;;;;;4979641;28;62047;-77
2022/09/13 03:22:48;;;;;;;;;4.00;1.00;;;;;;;;4980113;28;61919;-77
2022/09/13 03:25:32;;;;;;;;;2.67;2.00;;;;;;;;4996813;28;61955;-77
2022/09/13 03:28:12;;;;;;;;;3.00;3.00;;;;;;;;4998820;28;62917;-77
2022/09/13 03:30:40;;;;;;;;;4.00;3.00;;;;;;;;4999535;28;62891;-77
2022/09/13 03:33:11;;;;;;;;;4.00;3.00;;;;;;;;5000113;28;61772;-77
2022/09/13 03:35:39;;;;;;;;;2.00;2.00;;;;;;;;5000094;28;61894;-78
2022/09/13 03:38:04;;;;;;;;;2.00;2.00;;;;;;;;5055919;28;62172;-77
2022/09/13 03:40:36;;;;;;;;;6.67;3.00;;;;;;;;5060329;28;63686;-77
2022/09/13 03:43:01;;;;;;;;;2.33;2.33;;;;;;;;5060822;28;61775;-77
2022/09/13 03:45:30;;;;;;;;;2.33;2.00;;;;;;;;5061038;28;61779;-77
2022/09/13 03:47:55;;;;;;;;;4.00;3.00;;;;;;;;5062501;28;62081;-77
2022/09/13 03:50:22;;;;;;;;;4.67;3.00;;;;;;;;5060057;28;64898;-77
2022/09/13 03:52:51;;;;;;;;;3.33;3.00;;;;;;;;5072260;27;61730;-77
2022/09/13 03:55:20;;;;;;;;;4.00;3.67;;;;;;;;5102477;27;61834;-78
2022/09/13 03:57:45;;;;;;;;;4.00;3.00;;;;;;;;5101564;27;61780;-77
2022/09/13 04:00:11;;;;;;;;;3.00;3.00;;;;;;;;5100749;27;63529;-77
2022/09/13 04:02:37;;;;;;;;;3.67;3.67;;;;;;;;5101623;27;61785;-77
2022/09/13 04:05:02;;;;;;;;;3.00;3.00;;;;;;;;5102620;27;61699;-77
2022/09/13 04:07:27;;;;;;;;;3.00;3.00;;;;;;;;5101342;27;61791;-78
2022/09/13 04:09:53;;;;;;;;;3.00;3.00;;;;;;;;5101602;27;61951;-77
2022/09/13 04:12:18;;;;;;;;;2.33;2.00;;;;;;;;5102820;27;62050;-77
2022/09/13 04:14:43;;;;;;;;;2.00;2.00;;;;;;;;5102810;27;61881;-77
2022/09/13 04:17:09;;;;;;;;;1.33;1.33;;;;;;;;5102985;27;62185;-77
2022/09/13 04:19:34;;;;;;;;;2.00;2.00;;;;;;;;5103967;27;63407;-77
2022/09/13 04:21:59;;;;;;;;;4.33;2.33;;;;;;;;5104230;27;61809;-77
2022/09/13 04:24:25;;;;;;;;;2.00;2.00;;;;;;;;5105734;27;61654;-78
2022/09/13 04:27:01;;;;;;;;;1.67;1.67;;;;;;;;5104970;27;61998;-77
2022/09/13 04:29:28;;;;;;;;;2.00;2.00;;;;;;;;5103930;27;63611;-77
2022/09/13 04:31:54;;;;;;;;;2.00;2.00;;;;;;;;5104531;27;61979;-77
2022/09/13 04:34:21;;;;;;;;;2.00;2.00;;;;;;;;5105939;27;61831;-77
2022/09/13 04:36:47;;;;;;;;;2.00;2.00;;;;;;;;5106137;27;61684;-77
2022/09/13 04:39:15;;;;;;;;;3.00;1.33;;;;;;;;5103422;27;63966;-78
2022/09/13 04:41:43;;;;;;;;;4.00;2.33;;;;;;;;5104492;27;61984;-77
2022/09/13 04:44:08;;;;;;;;;2.00;2.00;;;;;;;;5105847;27;62092;-77
2022/09/13 04:46:34;;;;;;;;;4.00;3.00;;;;;;;;5106088;27;62189;-77
2022/09/13 04:48:59;;;;;;;;;3.00;2.00;;;;;;;;5105097;27;61950;-77
2022/09/13 04:51:24;;;;;;;;;3.33;2.33;;;;;;;;5104212;27;62016;-77
2022/09/13 04:53:54;;;;;;;;;2.00;2.00;;;;;;;;5104930;27;62140;-77
2022/09/13 04:56:19;;;;;;;;;2.00;2.00;;;;;;;;5105625;27;62106;-77
2022/09/13 04:58:45;;;;;;;;;3.33;2.00;;;;;;;;5104944;27;61731;-77
2022/09/13 05:01:10;;;;;;;;;7.00;2.67;;;;;;;;5103978;27;61893;-77
2022/09/13 05:03:36;;;;;;;;;4.00;4.00;;;;;;;;5105773;27;62105;-78
2022/09/13 05:06:05;;;;;;;;;5.00;4.00;;;;;;;;5103398;27;61941;-78
2022/09/13 05:08:31;;;;;;;;;4.00;4.00;;;;;;;;5102680;27;63831;-78
2022/09/13 05:10:57;;;;;;;;;5.75;5.25;;;;;;;;5104024;27;62052;-79
2022/09/13 05:13:22;;;;;;;;;4.50;4.00;;;;;;;;5103725;27;61755;-77
2022/09/13 05:15:48;;;;;;;;;7.00;5.00;;;;;;;;5104146;27;61936;-77
2022/09/13 05:18:13;;;;;;;;;4.67;3.67;;;;;;;;5102880;27;64490;-78
2022/09/13 05:20:38;;;;;;;;;2.67;2.67;;;;;;;;5103461;27;61864;-76
2022/09/13 05:23:03;;;;;;;;;4.00;4.00;;;;;;;;5102531;27;62053;-77
2022/09/13 05:25:29;;;;;;;;;4.00;4.00;;;;;;;;5103752;27;62148;-77
2022/09/13 05:27:54;;;;;;;;;5.67;3.67;;;;;;;;5102276;27;63795;-76
2022/09/13 05:30:19;;;;;;;;;9.00;5.00;;;;;;;;5103938;27;62121;-78
2022/09/13 05:32:46;;;;;;;;;7.25;4.25;;;;;;;;5104311;27;61825;-77
2022/09/13 05:35:12;;;;;;;;;4.00;4.00;;;;;;;;5103149;27;61895;-78
2022/09/13 05:37:37;;;;;;;;;5.00;3.33;;;;;;;;5101916;27;63903;-77
2022/09/13 05:40:03;;;;;;;;;5.00;4.33;;;;;;;;5102229;27;62391;-76
2022/09/13 05:42:28;;;;;;;;;3.00;3.00;;;;;;;;5103671;27;61884;-77
2022/09/13 05:44:53;;;;;;;;;3.00;3.00;;;;;;;;5101685;27;61907;-77
2022/09/13 05:47:19;;;;;;;;;6.00;4.25;;;;;;;;5102502;27;62106;-78
2022/09/13 05:49:44;;;;;;;;;3.33;3.33;;;;;;;;5102628;27;62112;-75
2022/09/13 05:52:09;;;;;;;;;4.50;3.75;;;;;;;;5103743;27;61834;-75
2022/09/13 05:54:35;;;;;;;;;7.00;4.25;;;;;;;;5103532;27;61820;-76
2022/09/13 05:57:01;;;;;;;;;3.00;3.00;;;;;;;;5102233;27;62047;-75
2022/09/13 05:59:26;;;;;;;;;5.00;5.00;;;;;;;;5103770;27;61841;-75
2022/09/13 06:01:51;;;;;;;;;4.00;2.67;;;;;;;;5102773;27;61820;-75
2022/09/13 06:04:16;;;;;;;;;3.00;3.00;;;;;;;;5104161;27;62168;-75
2022/09/13 06:06:42;;;;;;;;;8.67;6.00;;;;;;;;5101900;27;64232;-75
2022/09/13 06:09:09;;;;;;;;;6.00;3.00;;;;;;;;5102454;27;62060;-75
2022/09/13 06:11:34;;;;;;;;;6.25;5.25;;;;;;;;5103507;27;62008;-73
2022/09/13 06:14:00;;;;;;;;;4.00;2.50;;;;;;;;5103435;27;61734;-75
2022/09/13 06:16:26;;;;;;;;;1.25;1.25;;;;;;;;5103574;27;62946;-74
2022/09/13 06:18:51;;;;;;;;;4.25;2.50;;;;;;;;5102527;27;62081;-75
2022/09/13 06:21:18;;;;;;;;;4.50;3.75;;;;;;;;5097223;27;62215;-75
2022/09/13 06:23:48;;;;;;;;;6.00;4.67;;;;;;;;5089959;27;61895;-75
2022/09/13 06:26:14;;;;;;;;;4.00;3.00;;;;;;;;5082713;28;61781;-75
2022/09/13 06:28:40;;;;;;;;;5.00;4.75;;;;;;;;5082931;28;61691;-75
2022/09/13 06:31:07;;;;;;;;;5.00;4.75;;;;;;;;5081620;28;61924;-76
2022/09/13 06:33:33;;;;;;;;;4.50;4.00;;;;;;;;5081983;28;61879;-75
2022/09/13 06:36:27;;;;;;;;;4.00;4.00;;;;;;;;5082487;28;62017;-75
2022/09/13 06:38:52;;;;;;;;;4.25;3.50;;;;;;;;5072793;28;61782;-75
2022/09/13 06:41:19;;;;;;;;;4.00;4.00;;;;;;;;5082539;28;61937;-75
2022/09/13 06:43:45;;;;;;;;;5.00;3.33;;;;;;;;5083124;28;61880;-75
2022/09/13 06:46:12;;;;;;;;;8.50;5.50;;;;;;;;5098752;27;63569;-73
2022/09/13 06:48:38;;;;;;;;;9.75;6.00;;;;;;;;5101724;27;61879;-79
2022/09/13 06:51:05;;;;;;;;;9.75;6.00;;;;;;;;5100380;27;61871;-73
2022/09/13 06:53:32;;;;;;;;;6.75;6.25;;;;;;;;5101229;27;62067;-73
2022/09/13 06:56:04;;;;;;;;;6.25;5.00;;;;;;;;5102290;27;61885;-73
2022/09/13 06:58:30;;;;;;;;;6.33;5.00;;;;;;;;5103025;27;61840;-73
2022/09/13 07:01:16;;;;;;;;;6.00;4.00;;;;;;;;5101648;27;61777;-73
2022/09/13 07:03:42;;;;;;;;;5.33;4.67;;;;;;;;5101423;27;62068;-73
2022/09/13 07:06:09;;;;;;;;;4.33;3.00;;;;;;;;5102535;27;62446;-73
2022/09/13 07:08:34;;;;;;;;;9.00;3.67;;;;;;;;5099418;27;61762;-73
2022/09/13 07:11:00;;;;;;;;;5.67;4.00;;;;;;;;5093686;27;61965;-73
2022/09/13 07:13:25;;;;;;;;;4.75;3.25;;;;;;;;5103406;27;61828;-73
2022/09/13 07:15:50;;;;;;;;;6.67;3.00;;;;;;;;5100955;27;63796;-73
2022/09/13 07:18:15;;;;;;;;;3.00;3.00;;;;;;;;5102838;27;62367;-73
2022/09/13 07:20:40;;;;;;;;;4.00;2.67;;;;;;;;5101136;27;61918;-73
2022/09/13 07:23:06;;;;;;;;;3.33;2.33;;;;;;;;5101328;27;62237;-73
2022/09/13 07:25:31;;;;;;;;;4.00;4.00;;;;;;;;5102363;27;61921;-73
2022/09/13 07:27:56;;;;;;;;;4.00;3.00;;;;;;;;5102590;27;61704;-73
2022/09/13 07:30:24;;;;;;;;;5.67;2.33;;;;;;;;5102903;27;61667;-73
2022/09/13 07:32:49;;;;;;;;;4.00;4.00;;;;;;;;5101332;27;62079;-73
2022/09/13 07:35:15;;;;;;;;;3.67;3.67;;;;;;;;5100781;27;63470;-73
2022/09/13 07:37:41;;;;;;;;;4.67;3.67;;;;;;;;5101389;27;61980;-73
2022/09/13 07:40:06;;;;;;;;;3.67;3.67;;;;;;;;5101977;27;61743;-73
2022/09/13 07:42:32;;;;;;;;;4.33;3.67;;;;;;;;5101645;27;62031;-73
2022/09/13 07:44:57;;;;;;;;;5.33;3.67;;;;;;;;5100399;27;63957;-73
2022/09/13 07:47:22;;;;;;;;;3.67;3.00;;;;;;;;5102212;27;61910;-74
2022/09/13 07:49:49;;;;;;;;;6.67;3.33;;;;;;;;5102506;27;61844;-73
2022/09/13 07:52:14;;;;;;;;;4.00;4.00;;;;;;;;5100571;27;61800;-73
2022/09/13 07:54:39;;;;;;;;;3.00;3.00;;;;;;;;5099994;27;62779;-73
2022/09/13 07:57:05;;;;;;;;;4.67;3.00;;;;;;;;5100894;27;61847;-73
2022/09/13 07:59:30;;;;;;;;;4.00;3.00;;;;;;;;5102615;27;61858;-73
2022/09/13 08:01:55;;;;;;;;;5.00;3.00;;;;;;;;5102150;27;61857;-73
2022/09/13 08:04:23;;;;;;;;;8.75;8.00;;;;;;;;5101751;27;62986;-74
2022/09/13 08:06:48;;;;;;;;;4.00;4.00;;;;;;;;5102406;27;61812;-73
2022/09/13 08:09:14;;;;;;;;;5.33;4.00;;;;;;;;5101762;27;62206;-73
2022/09/13 08:11:41;;;;;;;;;5.33;4.00;;;;;;;;5102614;27;61660;-73
2022/09/13 08:14:08;;;;;;;;;3.00;3.00;;;;;;;;5101448;27;61707;-73
2022/09/13 08:16:33;;;;;;;;;2.67;2.67;;;;;;;;5100212;27;61851;-74
2022/09/13 08:19:00;;;;;;;;;4.00;3.00;;;;;;;;5101446;27;61837;-73
2022/09/13 08:21:30;;;;;;;;;4.00;4.00;;;;;;;;5102448;27;61817;-73
2022/09/13 08:23:58;;;;;;;;;3.00;3.00;;;;;;;;5101045;27;62974;-73
2022/09/13 08:26:24;;;;;;;;;4.67;4.00;;;;;;;;5102193;27;61808;-73
2022/09/13 08:28:54;;;;;;;;;3.00;2.00;;;;;;;;5100657;27;61904;-74
2022/09/13 08:31:21;;;;;;;;;4.67;4.67;;;;;;;;5101953;27;61796;-73
2022/09/13 08:33:49;;;;;;;;;2.67;2.67;;;;;;;;5099563;27;64677;-73
2022/09/13 08:36:15;;;;;;;;;4.67;3.67;;;;;;;;5099869;27;62249;-74
2022/09/13 08:38:47;;;;;;;;;6.67;3.67;;;;;;;;5099837;27;61915;-74
2022/09/13 08:41:18;;;;;;;;;4.67;4.67;;;;;;;;5098773;27;61851;-74
2022/09/13 08:43:48;;;;;;;;;7.00;3.00;;;;;;;;5099505;27;64854;-73
2022/09/13 08:46:16;;;;;;;;;4.00;4.00;;;;;;;;5097044;27;61816;-74
2022/09/13 08:48:46;;;;;;;;;9.00;7.33;;;;;;;;5101669;27;61865;-73
2022/09/13 08:51:34;;;;;;;;;7.67;5.33;;;;;;;;5101812;27;61779;-73
2022/09/13 08:54:00;;;;;;;;;4.00;4.00;;;;;;;;5091314;27;62037;-73
2022/09/13 08:56:35;;;;;;;;;4.00;3.67;;;;;;;;5100847;27;61821;-73
2022/09/13 08:59:24;;;;;;;;;3.33;3.00;;;;;;;;5101966;27;62023;-74
2022/09/13 09:02:21;;;;;;;;;4.67;4.67;;;;;;;;5078382;28;61739;-73
2022/09/13 09:04:54;;;;;;;;;4.00;3.00;;;;;;;;5053919;28;63600;-73
2022/09/13 09:07:25;;;;;;;;;5.00;3.67;;;;;;;;5081950;28;61855;-74
2022/09/13 09:10:09;;;;;;;;;2.00;2.00;;;;;;;;5081935;28;61790;-73
2022/09/13 09:12:43;;;;;;;;;4.00;2.33;;;;;;;;5082167;28;61977;-73
2022/09/13 09:15:16;;;;;;;;;3.67;3.67;;;;;;;;5063558;28;63837;-74
2022/09/13 09:17:47;;;;;;;;;3.33;1.67;;;;;;;;5081982;28;61921;-73
2022/09/13 09:20:15;;;;;;;;;2.33;2.33;;;;;;;;5064426;28;62115;-73
2022/09/13 09:22:40;;;;;;;;;2.67;1.67;;;;;;;;5065103;28;62133;-73
2022/09/13 09:25:09;;;;;;;;;1.00;1.00;;;;;;;;5080438;28;62005;-73
2022/09/13 09:27:35;;;;;;;;;2.33;2.00;;;;;;;;5081816;28;61974;-73
2022/09/13 09:30:00;;;;;;;;;2.67;2.67;;;;;;;;5081615;28;61904;-74
2022/09/13 09:32:25;;;;;;;;;3.00;1.67;;;;;;;;5081913;28;61871;-73
2022/09/13 09:34:51;;;;;;;;;3.00;3.00;;;;;;;;5063730;28;63795;-74
2022/09/13 09:37:21;;;;;;;;;3.00;2.00;;;;;;;;5064384;28;62206;-73
2022/09/13 09:39:47;;;;;;;;;2.00;1.00;;;;;;;;5097809;27;61887;-73
2022/09/13 09:42:18;;;;;;;;;0.33;0.33;;;;;;;;5104304;27;61912;-74
2022/09/13 09:44:49;;;;;;;;;3.33;3.33;;;;;;;;5103699;27;61990;-74
2022/09/13 09:47:19;;;;;;;;;2.33;2.33;;;;;;;;5104516;27;62237;-74
2022/09/13 09:52:38;;;;;;;;;2.33;2.33;;;;;;;;5104299;27;61670;-74
2022/09/13 09:55:19;;;;;;;;;2.00;2.00;;;;;;;;5102457;27;62772;-74
2022/09/13 09:57:52;;;;;;;;;3.00;2.67;;;;;;;;5104228;27;61845;-74
2022/09/13 10:00:18;;;;;;;;;3.67;2.00;;;;;;;;5104176;27;61886;-74
2022/09/13 10:02:44;;;;;;;;;3.00;1.67;;;;;;;;5102979;27;61936;-74
2022/09/13 10:05:13;;;;;;;;;1.67;1.67;;;;;;;;5103041;27;61833;-74
2022/09/13 10:07:39;;;;;;;;;2.00;1.67;;;;;;;;5103244;27;62016;-74
2022/09/13 10:10:07;;;;;;;;;1.33;1.33;;;;;;;;5098875;27;61928;-74
2022/09/13 10:12:34;;;;;;;;;1.00;1.00;;;;;;;;5083617;27;61835;-74
2022/09/13 10:15:06;;;;;;;;;2.67;1.33;;;;;;;;5083087;28;62169;-74
2022/09/13 10:17:31;;;;;;;;;2.00;2.00;;;;;;;;5099250;27;61910;-74
2022/09/13 10:19:58;;;;;;;;;3.67;3.00;;;;;;;;5083612;27;61957;-74
2022/09/13 10:22:24;;;;;;;;;2.00;2.00;;;;;;;;5099460;27;62164;-74
2022/09/13 10:24:50;;;;;;;;;2.00;2.00;;;;;;;;5098021;27;64117;-74
2022/09/13 10:27:23;;;;;;;;;1.00;1.00;;;;;;;;5098646;27;61711;-74
2022/09/13 10:29:50;;;;;;;;;5.00;3.67;;;;;;;;5099352;27;62046;-74
2022/09/13 10:32:18;;;;;;;;;3.00;3.00;;;;;;;;5083540;28;61927;-74
2022/09/13 10:34:44;;;;;;;;;3.67;3.00;;;;;;;;5098099;27;63790;-75
2022/09/13 10:37:13;;;;;;;;;3.67;3.00;;;;;;;;5083419;27;61916;-76
2022/09/13 10:39:50;;;;;;;;;2.00;2.00;;;;;;;;5098054;27;61879;-75
2022/09/13 10:42:20;;;;;;;;;3.33;2.33;;;;;;;;5102158;27;62163;-74
2022/09/13 10:44:50;;;;;;;;;4.67;4.67;;;;;;;;5101329;27;63575;-75
2022/09/13 10:47:21;;;;;;;;;4.67;4.67;;;;;;;;5101487;27;61967;-74
2022/09/13 10:49:49;;;;;;;;;4.00;4.00;;;;;;;;5103213;27;61825;-73
2022/09/13 10:52:23;;;;;;;;;16.33;16.33;;;;;;;;5101768;27;62044;-74
2022/09/13 10:54:49;;;;;;;;;29.75;29.00;;;;;;;;5100586;27;62872;-73
2022/09/13 10:57:46;;;;;;;;;6.67;5.00;;;;;;;;5103496;27;62137;-74
2022/09/13 11:00:24;;;;;;;;;6.00;6.00;;;;;;;;5078855;27;62134;-73
2022/09/13 11:02:52;;;;;;;;;4.00;3.67;;;;;;;;5103666;27;62030;-74
2022/09/13 11:05:37;;;;;;;;;4.00;4.00;;;;;;;;5101364;27;63678;-74
2022/09/13 11:08:13;;;;;;;;;2.33;2.33;;;;;;;;5102641;27;62152;-73
2022/09/13 11:10:45;;;;;;;;;6.00;3.67;;;;;;;;5102412;27;62080;-73
2022/09/13 11:13:16;;;;;;;;;2.33;2.33;;;;;;;;5101901;27;61788;-77
2022/09/13 11:15:48;;;;;;;;;4.00;2.67;;;;;;;;5101270;27;64758;-79
2022/09/13 11:18:34;;;;;;;;;2.67;2.67;;;;;;;;5101644;27;61838;-78
2022/09/13 11:21:16;;;;;;;;;2.00;2.00;;;;;;;;5102103;27;62331;-78
2022/09/13 11:23:47;;;;;;;;;2.33;2.33;;;;;;;;5098414;27;61823;-79
2022/09/13 11:26:24;;;;;;;;;3.67;3.67;;;;;;;;5098988;27;63750;-79
2022/09/13 11:29:02;;;;;;;;;3.00;2.67;;;;;;;;5100931;27;61875;-79
2022/09/13 11:31:36;;;;;;;;;3.00;3.00;;;;;;;;5099819;27;62036;-79
2022/09/13 11:34:13;;;;;;;;;2.00;2.00;;;;;;;;5098873;27;62265;-79
2022/09/13 11:36:47;;;;;;;;;3.00;1.67;;;;;;;;5097591;27;64100;-78
2022/09/13 11:39:12;;;;;;;;;2.67;2.67;;;;;;;;5101445;27;61824;-78
2022/09/13 11:41:37;;;;;;;;;2.67;1.67;;;;;;;;5102194;27;61904;-79
2022/09/13 11:44:21;;;;;;;;;2.67;2.67;;;;;;;;5102203;27;62043;-79
2022/09/13 11:47:04;;;;;;;;;1.00;1.00;;;;;;;;5100520;27;63067;-79
2022/09/13 11:49:36;;;;;;;;;2.33;2.33;;;;;;;;5100828;27;62037;-79
2022/09/13 11:52:10;;;;;;;;;5.00;2.00;;;;;;;;5100240;27;62121;-78
2022/09/13 11:54:44;;;;;;;;;1.67;1.33;;;;;;;;5097248;27;61973;-78
2022/09/13 11:57:48;;;;;;;;;3.00;3.00;;;;;;;;5101529;27;62727;-79
2022/09/13 12:00:29;;;;;;;;;2.00;2.00;;;;;;;;5038284;28;61798;-79
2022/09/13 12:03:02;;;;;;;;;3.00;3.00;;;;;;;;5039168;28;62378;-79
2022/09/13 12:05:33;;;;;;;;;2.33;2.33;;;;;;;;5022468;28;61752;-79
2022/09/13 12:08:18;;;;;;;;;2.67;2.67;;;;;;;;5021454;28;63560;-79
2022/09/13 12:11:02;;;;;;;;;1.67;1.67;;;;;;;;5021319;28;62087;-79
2022/09/13 12:13:33;;;;;;;;;4.00;2.00;;;;;;;;5021439;28;61884;-79
2022/09/13 12:16:08;;;;;;;;;1.67;1.67;;;;;;;;5022315;28;62326;-79
2022/09/13 12:18:38;;;;;;;;;2.33;2.33;;;;;;;;5038520;28;63271;-79
2022/09/13 12:21:11;;;;;;;;;4.00;2.67;;;;;;;;5038791;28;61882;-79
2022/09/13 12:24:02;;;;;;;;;4.33;4.33;;;;;;;;5021030;28;62046;-79
2022/09/13 12:26:34;;;;;;;;;2.00;2.00;;;;;;;;5036748;28;62174;-79
2022/09/13 12:29:08;;;;;;;;;3.00;2.00;;;;;;;;5021342;28;62998;-79
2022/09/13 12:31:33;;;;;;;;;3.00;3.00;;;;;;;;5075161;27;62024;-75
2022/09/13 12:34:03;;;;;;;;;4.33;1.67;;;;;;;;5102159;27;62126;-76
2022/09/13 12:36:49;;;;;;;;;2.00;1.00;;;;;;;;5100490;27;61777;-79
2022/09/13 12:39:17;;;;;;;;;1.67;1.67;;;;;;;;5052728;28;63984;-79
2022/09/13 12:41:48;;;;;;;;;2.00;2.00;;;;;;;;5025258;28;62006;-79
2022/09/13 12:44:13;;;;;;;;;2.00;2.00;;;;;;;;5025350;28;62053;-79
2022/09/13 12:46:54;;;;;;;;;2.33;2.33;;;;;;;;5042411;28;61973;-79
2022/09/13 12:49:39;;;;;;;;;1.67;1.67;;;;;;;;5024642;28;64225;-79
2022/09/13 12:52:23;;;;;;;;;6.00;3.33;;;;;;;;5041629;28;61976;-79
2022/09/13 12:55:21;;;;;;;;;1.00;1.00;;;;;;;;5024055;28;61944;-79
2022/09/13 12:57:46;;;;;;;;;2.00;2.00;;;;;;;;4982524;28;61917;-79
2022/09/13 13:00:20;;;;;;;;;1.33;1.33;;;;;;;;4981869;28;61794;-79
2022/09/13 13:02:49;;;;;;;;;1.33;1.33;;;;;;;;4981703;28;61884;-77
2022/09/13 13:05:20;;;;;;;;;3.33;2.33;;;;;;;;4966116;28;61937;-76
2022/09/13 13:07:50;;;;;;;;;3.67;2.33;;;;;;;;4966002;28;61881;-76
2022/09/13 13:10:45;;;;;;;;;2.33;2.33;;;;;;;;4981340;28;62353;-75
2022/09/13 13:13:23;;;;;;;;;2.00;2.00;;;;;;;;4974494;28;61774;-79
2022/09/13 13:15:48;;;;;;;;;2.33;1.67;;;;;;;;4982917;28;61905;-79
2022/09/13 13:18:23;;;;;;;;;1.33;1.33;;;;;;;;5041837;28;62205;-79
2022/09/13 13:20:54;;;;;;;;;2.33;2.33;;;;;;;;5040479;28;62091;-80
2022/09/13 13:23:27;;;;;;;;;5.00;3.33;;;;;;;;5040718;28;62009;-79
2022/09/13 13:25:56;;;;;;;;;5.00;3.00;;;;;;;;5041535;28;62206;-79
2022/09/13 13:28:40;;;;;;;;;2.00;2.00;;;;;;;;5024793;28;61934;-79
2022/09/13 13:31:06;;;;;;;;;3.67;1.67;;;;;;;;5043394;28;63925;-80
2022/09/13 13:33:44;;;;;;;;;4.00;2.00;;;;;;;;5074992;27;62213;-79
2022/09/13 13:36:23;;;;;;;;;3.00;3.00;;;;;;;;5103030;27;61785;-80
2022/09/13 13:38:49;;;;;;;;;2.00;2.00;;;;;;;;5103152;27;61749;-75
2022/09/13 13:41:38;;;;;;;;;3.33;2.67;;;;;;;;5102067;27;64053;-80
2022/09/13 13:44:19;;;;;;;;;1.33;1.33;;;;;;;;5096817;27;62331;-79
2022/09/13 13:46:45;;;;;;;;;1.33;1.33;;;;;;;;5103032;27;62160;-79
2022/09/13 13:49:39;;;;;;;;;1.67;1.67;;;;;;;;5103146;27;62102;-80
2022/09/13 13:52:07;;;;;;;;;2.67;1.33;;;;;;;;5077788;28;64119;-80
2022/09/13 13:54:44;;;;;;;;;1.00;1.00;;;;;;;;5079248;28;62088;-79
2022/09/13 13:57:38;;;;;;;;;1.67;1.67;;;;;;;;5063861;28;63414;-79
2022/09/13 14:00:15;;;;;;;;;3.00;3.00;;;;;;;;5076919;28;61894;-79
2022/09/13 14:02:49;;;;;;;;;3.00;3.00;;;;;;;;5061735;28;62701;-79
2022/09/13 14:05:14;;;;;;;;;3.00;3.00;;;;;;;;5062910;28;61908;-79
2022/09/13 14:07:49;;;;;;;;;3.67;3.00;;;;;;;;5080127;28;62080;-79
2022/09/13 14:10:40;;;;;;;;;2.00;2.00;;;;;;;;5063316;28;62220;-79
2022/09/13 14:13:11;;;;;;;;;3.33;3.00;;;;;;;;5032549;28;64149;-79
2022/09/13 14:15:57;;;;;;;;;3.33;3.33;;;;;;;;5063069;28;62020;-79
2022/09/13 14:18:28;;;;;;;;;2.00;2.00;;;;;;;;5078164;27;61961;-79
2022/09/13 14:20:58;;;;;;;;;2.00;2.00;;;;;;;;5064485;28;62259;-79
2022/09/13 14:23:23;;;;;;;;;3.33;3.33;;;;;;;;5078079;28;62010;-80
2022/09/13 14:25:56;;;;;;;;;3.33;3.00;;;;;;;;5081419;27;61964;-80
2022/09/13 14:28:22;;;;;;;;;4.33;3.00;;;;;;;;5071360;27;61849;-79
2022/09/13 14:30:52;;;;;;;;;2.33;2.33;;;;;;;;5102283;27;62059;-74
2022/09/13 14:33:37;;;;;;;;;5.00;3.00;;;;;;;;5103098;27;62295;-76
2022/09/13 14:36:04;;;;;;;;;4.33;3.00;;;;;;;;5102879;27;61952;-76
2022/09/13 14:38:34;;;;;;;;;3.00;3.00;;;;;;;;5102256;27;62011;-80
2022/09/13 14:41:01;;;;;;;;;3.00;2.00;;;;;;;;5100985;27;61794;-79
2022/09/13 14:43:27;;;;;;;;;3.67;2.00;;;;;;;;5101222;27;65348;-79
2022/09/13 14:46:04;;;;;;;;;2.00;2.00;;;;;;;;5101850;27;62116;-79
2022/09/13 14:48:33;;;;;;;;;2.67;2.67;;;;;;;;5101237;27;62030;-79
2022/09/13 14:51:01;;;;;;;;;2.00;2.00;;;;;;;;5102154;27;62480;-79
2022/09/13 14:53:29;;;;;;;;;3.00;1.67;;;;;;;;5099328;27;63962;-80
2022/09/13 14:55:55;;;;;;;;;3.00;3.00;;;;;;;;5099421;27;62205;-76
2022/09/13 14:58:26;;;;;;;;;2.00;2.00;;;;;;;;5101947;27;61964;-77
2022/09/13 15:00:55;;;;;;;;;3.00;3.00;;;;;;;;5100697;27;61789;-76
2022/09/13 15:03:21;;;;;;;;;5.00;2.33;;;;;;;;5101836;27;63146;-76
2022/09/13 15:05:52;;;;;;;;;2.00;2.00;;;;;;;;5103219;27;62189;-76